• Join FlightAware (Why Join?)
  • Login
  • US Flag 
11:39PM EDT


 

Airport Tracker/Info


-or-


 

Live Flight TrackerFlight Track Log ✈ FAB808 ✈ 09-May-2013 ✈ CYBK - CYUT

Flight Track Log - Related Links

Times and Time Zones

All times are in EDT time to prevent confusion due to time zone crossing. See the FAB808 flight status page for this flight to view local times or setup timezone preferences in your user account.

Time Position Orientation Groundspeed Altitude Reporting Facility
EDT Latitude Longitude Course Direction KTS MPH feet Rate Location/Type
04:08PM 64.6442 -94.7568 60° Northeast  Level FlightAware Approximate
04:09PM 64.6790 -94.6229 58° Northeast  Level FlightAware Approximate
04:10PM 64.7139 -94.4890 59° Northeast  Level FlightAware Approximate
04:11PM 64.7488 -94.3548 59° Northeast  Level FlightAware Approximate
04:12PM 64.7862 -94.2243 56° Northeast  Level FlightAware Approximate
04:13PM 64.8236 -94.0936 56° Northeast  Level FlightAware Approximate
04:14PM 64.8609 -93.9625 56° Northeast  Level FlightAware Approximate
04:15PM 64.8973 -93.8300 58° Northeast  Level FlightAware Approximate
04:16PM 64.9326 -93.6954 58° Northeast  Level FlightAware Approximate
04:17PM 64.9677 -93.5605 58° Northeast  Level FlightAware Approximate
04:18PM 65.0021 -93.4244 60° Northeast  Level FlightAware Approximate
04:19PM 65.0359 -93.2874 60° Northeast  Level FlightAware Approximate
04:20PM 65.0696 -93.1499 60° Northeast  Level FlightAware Approximate
04:21PM 65.1031 -93.0121 60° Northeast  Level FlightAware Approximate
04:22PM 65.1366 -92.8740 60° Northeast  Level FlightAware Approximate
04:23PM 65.1699 -92.7355 60° Northeast  Level FlightAware Approximate
04:24PM 65.2030 -92.5967 60° Northeast  Level FlightAware Approximate
04:25PM 65.2361 -92.4575 60° Northeast  Level FlightAware Approximate
04:26PM 65.2690 -92.3180 61° Northeast  Level FlightAware Approximate
04:27PM 65.3018 -92.1781 61° Northeast  Level FlightAware Approximate
04:28PM 65.3345 -92.0379 61° Northeast  Level FlightAware Approximate
04:29PM 65.3670 -91.8973 61° Northeast  Level FlightAware Approximate
04:30PM 65.3994 -91.7564 61° Northeast  Level FlightAware Approximate
04:31PM 65.4317 -91.6151 61° Northeast  Level FlightAware Approximate
04:32PM 65.4638 -91.4735 61° Northeast  Level FlightAware Approximate
04:33PM 65.4958 -91.3316 61° Northeast  Level FlightAware Approximate
04:34PM 65.5277 -91.1893 62° Northeast  Level FlightAware Approximate
04:35PM 65.5594 -91.0466 62° Northeast  Level FlightAware Approximate
04:36PM 65.5910 -90.9036 62° Northeast  Level FlightAware Approximate
04:37PM 65.6225 -90.7603 62° Northeast  Level FlightAware Approximate
04:38PM 65.6538 -90.6166 62° Northeast  Level FlightAware Approximate
04:39PM 65.6850 -90.4725 62° Northeast  Level FlightAware Approximate
04:40PM 65.7161 -90.3281 62° Northeast  Level FlightAware Approximate
04:41PM 65.7470 -90.1834 62° Northeast  Level FlightAware Approximate
04:42PM 65.7778 -90.0383 63° Northeast  Level FlightAware Approximate
04:43PM 65.8084 -89.8929 63° Northeast  Level FlightAware Approximate
04:44PM 65.8390 -89.7471 63° Northeast  Level FlightAware Approximate
04:45PM 65.8693 -89.6010 63° Northeast  Level FlightAware Approximate
04:46PM 65.9006 -89.4558 61° Northeast  Level FlightAware Approximate
04:47PM 65.9312 -89.3097 64° Northeast  Level FlightAware Approximate
04:48PM 65.9604 -89.1616 64° Northeast  Level FlightAware Approximate
04:49PM 65.9894 -89.0132 64° Northeast  Level FlightAware Approximate
04:50PM 66.0183 -88.8644 64° Northeast  Level FlightAware Approximate
04:51PM 66.0471 -88.7153 65° Northeast  Level FlightAware Approximate
04:52PM 66.0764 -88.5666 64° Northeast  Level FlightAware Approximate
04:53PM 66.1056 -88.4178 64° Northeast  Level FlightAware Approximate
04:54PM 66.1347 -88.2685 64° Northeast  Level FlightAware Approximate
04:55PM 66.1637 -88.1190 64° Northeast  Level FlightAware Approximate
04:56PM 66.1935 -87.9704 61° Northeast  Level FlightAware Approximate
04:57PM 66.2254 -87.8242 62° Northeast  Level FlightAware Approximate
04:58PM 66.2571 -87.6776 62° Northeast  Level FlightAware Approximate
04:59PM 66.2853 -87.5265 67° East  Level FlightAware Approximate
05:00PM 66.3118 -87.3733 67° East  Level FlightAware Approximate
05:01PM 66.3381 -87.2197 67° East  Level FlightAware Approximate
05:02PM 66.3647 -87.0663 66° East  Level FlightAware Approximate
05:03PM 66.3914 -86.9128 66° East  Level FlightAware Approximate
05:04PM 66.4188 -86.7603 50° Northeast  Level FlightAware Approximate
05:05PM 66.4500 -86.6208 90° East  Level FlightAware Approximate
05:06PM 66.4716 -86.4647 65° Northeast  Level FlightAware Approximate
05:07PM 66.5007 -86.3134 63° Northeast  Level FlightAware Approximate
05:08PM 66.5167 -86.2167 90° East  Level FlightAware Approximate
05:09PM 66.5214 -86.2247 90° East  Level Estimated
05:10PM 66.5167 -86.2167 90° East  Level FlightAware Approximate
05:11PM 66.5214 -86.2247 90° East  Level Estimated
05:12PM 66.5167 -86.2167 90° East  Level FlightAware Approximate
05:13PM 66.5214 -86.2247 90° East  Level Estimated
05:14PM 66.5167 -86.2167 90° East  Level FlightAware Approximate
05:15PM 66.5214 -86.2247 90° East  Level Estimated